Skip Navigation LinksHome page > Weather > Current weather Skip Navigation Links

Current Weather

Mc Carran Intl, Las Vegas, Nev.

For information only: do not use for flight planning or navigation.
Latest weather
Observation time Wednesday, October 16, 2019 10:56 PM PDT
Local time Wednesday, October 16, 2019 11:10 PM PDT
Flight conditions Visual Meteorological Conditions
Winds
Wind direction South-Southwest (210°)
Wind speed 5 mph
Visibility 10 mi.
Sky condition
Ceiling unlimited
Sky clear
Temperature 73°F
Dewpoint 25°F
Altimeter 29.82 in.Hg
Pressure change last 3 hours0.01 in.Hg
Pressure falling more quickly
Derived measurements
Relative humidity 17%
Density altitude 3281 ft.
Sea-level pressure 29.76 in.Hg
Climate data
Temperature minimum, last 6 hours 73°F
Temperature maximum, last 6 hours 86°F
Remarks
Automated weather observing station with precipitation discriminator.
METAR KLAS 170556Z 21004KT 10SM CLR 23/M04 A2982 RMK AO2 SLP079 T02281039 10300 20228 58003

Settings

Location code

InnerDrive.Weather 4.0.6770.0 Release CLR 4.0.30319.42000
Copyright ©2018 Inner Drive Technology. All rights reserved. Portions Copyright ©1986-2018 David Braverman.

Find weather

Site navigation


Skip Navigation Links

Place info

Page info

PayPal - The safer, easier way to pay online!

Return home.

Copyright ©2019 Inner Drive Technology. Purveyors of fine, hand-crafted computer software. Page printed 2019-10-17T06:10:52 UTC.